Rickmers Dalian — V7FS3 — position and weather

sailwx.info

Track history (hours):
 
Tides and Currents Weather Stations Pressure Air Temp Water Temp Dewpoint Dewpoint Depression Visibility Wind Speed Wind Dir Waves Ship Positions

Rickmers Dalian

Last reported at 2014-Sep-20 16:33 UTC. Time now 2014-Sep-20 20:00 UTC.
Position N 29°44' W 095°16'.

Length 193 m; beam 27.8 m; draft 11.2 m.

Type: Ship. MMSI: 538090156.

Date/timePositionNaut miles runAvg speedWind from/ knotsBaromVisibWave heightAir tempDewpointWater temp
2014-Sep-20 16:33N 29°44' W 095°16'4 3.8
2014-Sep-20 15:33N 29°44' W 095°12'5 5.2
2014-Sep-20 14:33N 29°45' W 095°06'6 6.1
2014-Sep-20 13:33N 29°42' W 094°60'1312.5
2014-Sep-20 12:33N 29°31' W 094°53'  
2014-Sep-16 16:00N 28°48' W 093°48'5214.5 180 / 101018.010.8 30.024.329.0
2014-Sep-16 12:25N 29°17' W 094°37'1311.5
2014-Sep-16 11:17N 29°24' W 094°49'912.0
2014-Sep-16 10:33N 29°32' W 094°54'1111.3
2014-Sep-16 09:33N 29°42' W 095°00'6 5.8
2014-Sep-16 08:33N 29°45' W 095°06'5 5.2
2014-Sep-16 07:32N 29°44' W 095°12'3 0.5
2014-Sep-16 01:07N 29°44' W 095°16'0 0.0
2014-Sep-16 00:31N 29°44' W 095°16'0 0.0
2014-Sep-15 23:28N 29°44' W 095°16'0 0.0
2014-Sep-15 22:31N 29°44' W 095°16'0 0.0
2014-Sep-15 21:31N 29°44' W 095°16'0 0.0
2014-Sep-15 20:31N 29°44' W 095°16'0 0.0
2014-Sep-15 19:28N 29°44' W 095°16'0 0.0
2014-Sep-15 18:31N 29°44' W 095°16'0 0.0
2014-Sep-15 17:28N 29°44' W 095°16'0 0.0
2014-Sep-15 16:28N 29°44' W 095°16'0 0.0
2014-Sep-15 15:31N 29°44' W 095°16'0 0.0
2014-Sep-15 14:31N 29°44' W 095°16'0 0.0
2014-Sep-15 13:31N 29°44' W 095°16'0 0.0
2014-Sep-15 00:16N 29°44' W 095°16'0 0.0
2014-Sep-13 19:28N 29°44' W 095°16'0 0.0
2014-Sep-13 16:13N 29°44' W 095°16'0 0.0
2014-Sep-13 15:25N 29°44' W 095°16'0 0.0
2014-Sep-13 14:16N 29°44' W 095°16'0 0.0
2014-Sep-13 13:28N 29°44' W 095°16'0 0.0
2014-Sep-13 09:19N 29°44' W 095°16'0 0.0
2014-Sep-13 08:19N 29°44' W 095°16'0 0.0
2014-Sep-13 07:31N 29°44' W 095°16'1 0.1
2014-Sep-12 20:31N 29°43' W 095°15'4 3.8
2014-Sep-12 19:33N 29°45' W 095°11'5 4.9
2014-Sep-12 18:33N 29°45' W 095°06'6 6.5
2014-Sep-12 17:33N 29°42' W 094°59'1312.9
2014-Sep-12 16:33N 29°30' W 094°52'1311.7
2014-Sep-12 15:27N 29°21' W 094°43'25710.5
2014-Sep-11 15:00N 26°42' W 090°54'   070 / 81014.0 5.4 29.027.629.0
Track history (hours):
 
Tides and Currents Weather Stations Pressure Air Temp Water Temp Dewpoint Dewpoint Depression Visibility Wind Speed Wind Dir Waves Ship Positions

Rickmers Dalian

Last reported at 2014-Sep-20 16:33 UTC. Time now 2014-Sep-20 20:00 UTC.
Position N 29°44' W 095°16'.

Length 193 m; beam 27.8 m; draft 11.2 m.

Type: Ship. MMSI: 538090156.

Date/timePositionNaut miles runAvg speedWind from/ knotsBaromVisibWave heightAir tempDewpointWater temp
2014-Sep-20 16:33N 29°44' W 095°16'4 3.8
2014-Sep-20 15:33N 29°44' W 095°12'5 5.2
2014-Sep-20 14:33N 29°45' W 095°06'6 6.1
2014-Sep-20 13:33N 29°42' W 094°60'1312.5
2014-Sep-20 12:33N 29°31' W 094°53'  
2014-Sep-16 16:00N 28°48' W 093°48'5214.5 180 / 101018.010.8 30.024.329.0
2014-Sep-16 12:25N 29°17' W 094°37'1311.5
2014-Sep-16 11:17N 29°24' W 094°49'912.0
2014-Sep-16 10:33N 29°32' W 094°54'1111.3
2014-Sep-16 09:33N 29°42' W 095°00'6 5.8
2014-Sep-16 08:33N 29°45' W 095°06'5 5.2
2014-Sep-16 07:32N 29°44' W 095°12'3 0.5
2014-Sep-16 01:07N 29°44' W 095°16'0 0.0
2014-Sep-16 00:31N 29°44' W 095°16'0 0.0
2014-Sep-15 23:28N 29°44' W 095°16'0 0.0
2014-Sep-15 22:31N 29°44' W 095°16'0 0.0
2014-Sep-15 21:31N 29°44' W 095°16'0 0.0
2014-Sep-15 20:31N 29°44' W 095°16'0 0.0
2014-Sep-15 19:28N 29°44' W 095°16'0 0.0
2014-Sep-15 18:31N 29°44' W 095°16'0 0.0
2014-Sep-15 17:28N 29°44' W 095°16'0 0.0
2014-Sep-15 16:28N 29°44' W 095°16'0 0.0
2014-Sep-15 15:31N 29°44' W 095°16'0 0.0
2014-Sep-15 14:31N 29°44' W 095°16'0 0.0
2014-Sep-15 13:31N 29°44' W 095°16'0 0.0
2014-Sep-15 00:16N 29°44' W 095°16'0 0.0
2014-Sep-13 19:28N 29°44' W 095°16'0 0.0
2014-Sep-13 16:13N 29°44' W 095°16'0 0.0
2014-Sep-13 15:25N 29°44' W 095°16'0 0.0
2014-Sep-13 14:16N 29°44' W 095°16'0 0.0
2014-Sep-13 13:28N 29°44' W 095°16'0 0.0
2014-Sep-13 09:19N 29°44' W 095°16'0 0.0
2014-Sep-13 08:19N 29°44' W 095°16'0 0.0
2014-Sep-13 07:31N 29°44' W 095°16'1 0.1
2014-Sep-12 20:31N 29°43' W 095°15'4 3.8
2014-Sep-12 19:33N 29°45' W 095°11'5 4.9
2014-Sep-12 18:33N 29°45' W 095°06'6 6.5
2014-Sep-12 17:33N 29°42' W 094°59'1312.9
2014-Sep-12 16:33N 29°30' W 094°52'1311.7
2014-Sep-12 15:27N 29°21' W 094°43'25710.5
2014-Sep-11 15:00N 26°42' W 090°54'   070 / 81014.0 5.4 29.027.629.0

Dump ship's entire track history